createdAt,value
2024-02-02T00:00:17.616Z,22.00
2024-02-02T00:03:06.143Z,21.25
2024-02-02T00:05:34.760Z,21.00
2024-02-02T00:08:02.971Z,21.25
2024-02-02T00:10:31.502Z,20.50
2024-02-02T00:12:59.968Z,21.25
2024-02-02T00:15:28.618Z,21.33
2024-02-02T00:17:57.390Z,20.25
2024-02-02T00:20:25.903Z,21.25
2024-02-02T00:22:56.621Z,19.25
2024-02-02T00:25:25.474Z,21.00
2024-02-02T00:27:54.133Z,19.33
2024-02-02T00:30:22.777Z,20.00
2024-02-02T00:32:51.256Z,21.25
2024-02-02T00:35:19.713Z,20.25
2024-02-02T00:37:48.294Z,18.75
2024-02-02T00:40:19.944Z,20.00
2024-02-02T00:42:49.502Z,19.75
2024-02-02T00:45:17.914Z,18.33
2024-02-02T00:47:46.673Z,19.50
2024-02-02T00:50:15.081Z,18.67
2024-02-02T00:52:44.137Z,19.25
2024-02-02T00:55:12.797Z,17.00
2024-02-02T00:57:41.110Z,18.50
2024-02-02T01:00:12.036Z,18.50
2024-02-02T01:02:40.852Z,18.25
2024-02-02T01:05:12.554Z,18.33
2024-02-02T01:07:41.380Z,18.25
2024-02-02T01:10:13.828Z,16.67
2024-02-02T01:12:42.137Z,16.00
2024-02-02T01:15:10.617Z,18.00
2024-02-02T01:17:39.000Z,16.67
2024-02-02T01:20:08.285Z,18.00
2024-02-02T01:22:36.371Z,16.00
2024-02-02T01:25:04.963Z,18.25
2024-02-02T01:27:34.833Z,17.33
2024-02-02T01:30:04.288Z,16.00
2024-02-02T01:32:32.425Z,16.50
2024-02-02T01:35:00.604Z,16.50
2024-02-02T01:37:29.061Z,15.25
2024-02-02T01:39:57.678Z,16.33
2024-02-02T01:42:26.107Z,15.75
2024-02-02T01:44:54.288Z,15.00
2024-02-02T01:47:22.628Z,16.50
2024-02-02T01:49:50.988Z,15.33
2024-02-02T01:52:19.465Z,14.75
2024-02-02T01:54:47.726Z,15.50
2024-02-02T01:57:16.190Z,15.25
2024-02-02T01:59:44.688Z,16.50
2024-02-02T02:02:13.791Z,15.25
2024-02-02T02:04:42.498Z,14.25
2024-02-02T02:07:10.963Z,15.33
2024-02-02T02:09:39.317Z,16.50
2024-02-02T02:12:08.055Z,15.25
2024-02-02T02:14:36.545Z,15.00
2024-02-02T02:17:05.126Z,14.33
2024-02-02T02:29:03.188Z,15.00
2024-02-02T02:31:31.435Z,15.25
2024-02-02T02:33:59.948Z,14.25
2024-02-02T02:36:28.587Z,13.00
2024-02-02T02:38:57.147Z,11.33
2024-02-02T02:41:26.121Z,14.00
2024-02-02T02:43:54.189Z,12.75
2024-02-02T02:46:22.406Z,13.00
2024-02-02T02:48:51.339Z,13.33
2024-02-02T02:51:19.932Z,15.25
2024-02-02T02:53:48.240Z,13.25
2024-02-02T02:56:16.640Z,13.00
2024-02-02T02:58:45.236Z,13.25
2024-02-02T03:01:13.747Z,14.00
2024-02-02T03:03:41.930Z,13.50
2024-02-02T03:06:10.452Z,13.33
2024-02-02T03:08:38.943Z,12.67
2024-02-02T03:11:07.129Z,12.25
2024-02-02T03:13:35.614Z,14.25
2024-02-02T03:16:04.421Z,13.33
2024-02-02T03:18:32.762Z,12.25
2024-02-02T03:21:01.203Z,13.25
2024-02-02T03:23:30.230Z,12.25
2024-02-02T03:25:58.388Z,11.67
2024-02-02T03:28:26.441Z,12.33
2024-02-02T03:30:54.787Z,13.33
2024-02-02T03:33:23.322Z,12.25
2024-02-02T03:35:51.743Z,12.50
2024-02-02T03:38:19.949Z,13.25
2024-02-02T03:40:48.220Z,12.33
2024-02-02T03:43:16.432Z,12.33
2024-02-02T03:45:44.759Z,12.33
2024-02-02T03:48:13.349Z,12.00
2024-02-02T03:50:41.802Z,12.25
2024-02-02T03:53:10.588Z,11.25
2024-02-02T03:55:39.048Z,11.50
2024-02-02T03:58:07.111Z,11.00
2024-02-02T04:00:35.627Z,11.25
2024-02-02T04:03:04.784Z,12.33
2024-02-02T04:05:33.244Z,10.25
2024-02-02T04:08:01.752Z,11.25
2024-02-02T04:10:30.249Z,10.25
2024-02-02T04:12:59.161Z,9.33
2024-02-02T04:15:28.623Z,11.25
2024-02-02T04:17:57.488Z,11.50
2024-02-02T04:20:25.978Z,11.25
2024-02-02T04:22:54.334Z,10.25
2024-02-02T04:25:23.057Z,10.25
2024-02-02T04:27:51.536Z,10.33
2024-02-02T04:30:20.276Z,10.00
2024-02-02T04:32:48.803Z,10.25
2024-02-02T04:35:17.143Z,10.33
2024-02-02T04:37:45.477Z,8.67
2024-02-02T04:40:13.731Z,10.25
2024-02-02T04:42:42.207Z,11.25
2024-02-02T04:45:10.761Z,9.33
2024-02-02T04:47:39.228Z,10.25
2024-02-02T04:50:08.064Z,9.25
2024-02-02T04:52:36.392Z,10.67
2024-02-02T04:55:05.959Z,9.25
2024-02-02T04:57:34.227Z,8.33
2024-02-02T05:00:02.723Z,8.50
2024-02-02T05:02:32.947Z,8.50
2024-02-02T05:05:01.318Z,9.33
2024-02-02T05:07:29.693Z,9.25
2024-02-02T05:09:58.151Z,8.75
2024-02-02T05:12:26.193Z,9.00
2024-02-02T05:14:55.193Z,7.50
2024-02-02T05:17:23.452Z,8.25
2024-02-02T05:19:51.968Z,5.75
2024-02-02T05:22:20.318Z,6.50
2024-02-02T05:24:49.583Z,8.00
2024-02-02T05:27:17.906Z,9.67
2024-02-02T05:29:46.354Z,9.25
2024-02-02T05:32:14.496Z,7.67
2024-02-02T05:34:43.408Z,6.67
2024-02-02T05:37:11.947Z,6.67
2024-02-02T05:39:40.346Z,5.00
2024-02-02T05:42:08.981Z,6.00
2024-02-02T05:44:38.239Z,6.50
2024-02-02T05:47:06.566Z,7.67
2024-02-02T05:49:35.015Z,7.00
2024-02-02T05:52:03.436Z,7.33
2024-02-02T05:54:32.938Z,7.00
2024-02-02T05:57:01.360Z,7.00
2024-02-02T05:59:29.587Z,7.00
2024-02-02T06:01:57.904Z,5.50
2024-02-02T06:04:26.420Z,6.00
2024-02-02T06:06:54.892Z,6.00
2024-02-02T06:09:23.665Z,7.33
2024-02-02T06:11:52.048Z,7.00
2024-02-02T06:14:20.176Z,8.00
2024-02-02T06:16:49.577Z,7.67
2024-02-02T06:19:18.254Z,7.33
2024-02-02T06:21:46.629Z,9.25
2024-02-02T06:24:15.344Z,10.33
2024-02-02T06:26:44.571Z,10.25
2024-02-02T06:29:12.929Z,8.25
2024-02-02T06:31:41.301Z,9.33
2024-02-02T06:34:12.617Z,11.00
2024-02-02T06:36:42.315Z,10.00
2024-02-02T06:39:10.791Z,11.00
2024-02-02T06:41:39.177Z,10.25
2024-02-02T06:44:07.460Z,12.25
2024-02-02T06:46:35.877Z,11.33
2024-02-02T06:49:04.423Z,10.33
2024-02-02T06:51:33.095Z,10.25
2024-02-02T06:54:01.400Z,10.00
2024-02-02T06:56:46.416Z,10.25
2024-02-02T06:59:14.857Z,9.50
2024-02-02T07:01:42.948Z,8.25
2024-02-02T07:04:15.163Z,10.00
2024-02-02T07:06:43.694Z,8.33
2024-02-02T07:09:24.307Z,10.25
2024-02-02T07:11:57.816Z,9.25
2024-02-02T07:14:34.804Z,10.00
2024-02-02T07:17:03.749Z,7.00
2024-02-02T07:19:38.955Z,9.25
2024-02-02T07:22:39.884Z,11.33
2024-02-02T07:25:17.200Z,10.33
2024-02-02T07:27:48.928Z,10.25
2024-02-02T07:30:32.605Z,9.25
2024-02-02T07:33:01.908Z,9.25
2024-02-02T07:35:34.612Z,9.25
2024-02-02T07:38:06.537Z,9.33
2024-02-02T07:40:49.936Z,9.33
2024-02-02T07:43:18.396Z,10.00
2024-02-02T07:45:46.658Z,9.50
2024-02-02T07:48:14.891Z,7.67
2024-02-02T07:50:43.221Z,9.33
2024-02-02T07:53:11.704Z,8.00
2024-02-02T07:55:40.712Z,9.25
2024-02-02T07:58:09.281Z,8.00
2024-02-02T08:00:37.819Z,8.67
2024-02-02T08:03:10.554Z,8.00
2024-02-02T08:05:40.773Z,9.25
2024-02-02T08:08:09.539Z,8.67
2024-02-02T08:10:43.261Z,9.50
2024-02-02T08:13:13.844Z,9.33
2024-02-02T08:15:42.523Z,9.50
2024-02-02T08:18:12.180Z,7.33
2024-02-02T08:20:40.766Z,8.00
2024-02-02T08:23:09.057Z,8.33
2024-02-02T08:25:37.233Z,9.00
2024-02-02T08:28:06.280Z,8.00
2024-02-02T08:30:34.476Z,8.50
2024-02-02T08:33:03.053Z,9.00
2024-02-02T08:35:31.462Z,8.00
2024-02-02T08:38:01.381Z,9.50
2024-02-02T08:40:41.040Z,9.33
2024-02-02T08:43:14.103Z,9.33
2024-02-02T08:45:42.288Z,8.00
2024-02-02T08:48:21.044Z,7.00
2024-02-02T08:50:49.663Z,10.50
2024-02-02T08:53:18.261Z,8.33
2024-02-02T08:55:50.822Z,9.33
2024-02-02T08:58:28.570Z,7.67
2024-02-02T09:00:56.798Z,10.00
2024-02-02T09:03:48.494Z,11.00
2024-02-02T09:06:44.576Z,11.00
2024-02-02T09:09:13.598Z,14.50
2024-02-02T09:11:42.332Z,13.50
2024-02-02T09:14:15.684Z,14.50
2024-02-02T09:16:45.777Z,14.00
2024-02-02T09:19:28.046Z,11.00
2024-02-02T09:21:59.006Z,14.00
2024-02-02T09:24:43.283Z,13.33
2024-02-02T09:27:33.401Z,14.00
2024-02-02T09:30:02.308Z,14.33
2024-02-02T09:32:30.916Z,15.50
2024-02-02T09:35:01.255Z,15.00
2024-02-02T09:37:51.193Z,14.00
2024-02-02T09:40:40.549Z,15.25
2024-02-02T09:43:14.091Z,13.33
2024-02-02T09:45:55.042Z,13.33
2024-02-02T09:48:31.736Z,15.00
2024-02-02T09:51:18.747Z,14.00
2024-02-02T09:53:52.814Z,13.50
2024-02-02T09:56:27.947Z,13.25
2024-02-02T09:59:23.487Z,14.00
2024-02-02T10:02:04.033Z,11.25
2024-02-02T10:05:01.322Z,10.25
2024-02-02T10:07:47.974Z,10.00
2024-02-02T10:10:22.027Z,13.33
2024-02-02T10:13:17.620Z,12.67
2024-02-02T10:16:08.843Z,12.00
2024-02-02T10:18:50.632Z,12.25
2024-02-02T10:21:29.611Z,13.25
2024-02-02T10:24:18.828Z,13.00
2024-02-02T10:27:25.932Z,13.67
2024-02-02T10:30:29.041Z,14.50
2024-02-02T10:33:21.629Z,14.50
2024-02-02T10:35:56.394Z,14.00
2024-02-02T10:38:59.685Z,15.00
2024-02-02T10:41:46.491Z,15.00
2024-02-02T10:44:50.727Z,15.00
2024-02-02T10:47:46.101Z,14.50
2024-02-02T10:50:50.636Z,14.00
2024-02-02T10:53:24.969Z,14.00
2024-02-02T10:56:02.181Z,15.00
2024-02-02T10:58:48.762Z,15.33
2024-02-02T11:01:33.190Z,14.00
2024-02-02T11:04:23.198Z,14.00
2024-02-02T11:07:07.472Z,14.33
2024-02-02T11:09:46.858Z,14.00
2024-02-02T11:12:24.729Z,14.00
2024-02-02T11:15:37.567Z,14.00
2024-02-02T11:18:09.542Z,13.75
2024-02-02T11:20:52.961Z,14.25
2024-02-02T11:23:30.270Z,13.00
2024-02-02T11:26:01.203Z,12.50
2024-02-02T11:28:32.182Z,14.50
2024-02-02T11:31:03.467Z,13.25
2024-02-02T11:33:47.725Z,13.00
2024-02-02T11:40:11.926Z,14.25
2024-02-02T11:42:40.850Z,15.00
2024-02-02T11:45:13.511Z,14.00
2024-02-02T11:47:54.096Z,13.33
2024-02-02T11:50:22.739Z,14.33
2024-02-02T11:52:59.221Z,14.00
2024-02-02T11:55:33.173Z,13.25
2024-02-02T11:58:04.585Z,14.50
2024-02-02T12:00:35.543Z,11.67
2024-02-02T12:03:13.159Z,14.25
2024-02-02T12:06:15.084Z,13.50
2024-02-02T12:08:58.456Z,12.00
2024-02-02T12:11:36.725Z,13.33
2024-02-02T12:14:29.423Z,13.33
2024-02-02T12:16:58.582Z,13.00
2024-02-02T12:19:28.131Z,14.50
2024-02-02T12:21:56.640Z,12.67
2024-02-02T12:24:25.180Z,12.33
2024-02-02T12:26:53.598Z,12.00
2024-02-02T12:29:22.712Z,13.25
2024-02-02T12:31:51.018Z,12.00
2024-02-02T12:34:19.259Z,13.00
2024-02-02T12:36:47.802Z,13.00
2024-02-02T12:39:16.346Z,12.50
2024-02-02T12:41:44.806Z,11.50
2024-02-02T12:44:12.896Z,12.00
2024-02-02T12:46:48.704Z,12.33
2024-02-02T12:49:17.234Z,12.25
2024-02-02T12:51:46.040Z,12.33
2024-02-02T12:54:14.666Z,13.00
2024-02-02T12:56:43.073Z,13.00
2024-02-02T12:59:19.843Z,13.33
2024-02-02T13:01:51.094Z,13.50
2024-02-02T13:04:19.537Z,13.33
2024-02-02T13:06:48.084Z,13.25
2024-02-02T13:09:33.350Z,14.00
2024-02-02T13:12:02.138Z,14.25
2024-02-02T13:14:32.761Z,14.33
2024-02-02T13:17:12.493Z,16.50
2024-02-02T13:19:47.225Z,15.00
2024-02-02T13:22:22.733Z,17.00
2024-02-02T13:24:55.005Z,17.25
2024-02-02T13:27:26.838Z,17.00
2024-02-02T13:30:03.832Z,17.33
2024-02-02T13:32:35.008Z,19.25
2024-02-02T13:35:09.856Z,17.33
2024-02-02T13:37:44.595Z,17.25
2024-02-02T13:40:14.704Z,17.00
2024-02-02T13:42:43.589Z,17.25
2024-02-02T13:45:16.641Z,17.00
2024-02-02T13:47:57.894Z,16.25
2024-02-02T13:50:41.818Z,17.25
2024-02-02T13:53:10.586Z,17.00
2024-02-02T13:55:39.340Z,17.33
2024-02-02T13:58:08.009Z,17.00
2024-02-02T14:00:36.514Z,16.75
2024-02-02T14:03:12.733Z,16.67
2024-02-02T14:05:42.799Z,14.50
2024-02-02T14:08:11.038Z,16.50
2024-02-02T14:10:46.610Z,17.25
2024-02-02T14:13:20.373Z,16.25
2024-02-02T14:15:50.402Z,16.25
2024-02-02T14:18:22.214Z,16.25
2024-02-02T14:20:50.922Z,17.25
2024-02-02T14:23:19.073Z,17.00
2024-02-02T14:25:47.426Z,16.25
2024-02-02T14:28:19.927Z,17.67
2024-02-02T14:30:48.786Z,15.75
2024-02-02T14:33:24.927Z,16.50
2024-02-02T14:35:55.321Z,16.00
2024-02-02T14:38:23.865Z,17.50
2024-02-02T14:50:21.988Z,15.25
2024-02-02T14:52:50.144Z,16.25
2024-02-02T14:55:18.171Z,15.67
2024-02-02T14:57:47.402Z,16.25
2024-02-02T15:00:31.134Z,18.00
2024-02-02T15:03:00.249Z,18.00
2024-02-02T15:05:29.059Z,14.25
2024-02-02T15:07:58.416Z,15.75
2024-02-02T15:10:26.799Z,16.25
2024-02-02T15:12:55.125Z,15.25
2024-02-02T15:15:23.931Z,17.00
2024-02-02T15:17:52.377Z,16.33
2024-02-02T15:20:20.796Z,16.25
2024-02-02T15:22:49.192Z,16.33
2024-02-02T15:25:17.564Z,16.25
2024-02-02T15:27:45.973Z,15.75
2024-02-02T15:30:14.864Z,17.50
2024-02-02T15:32:45.299Z,15.25
2024-02-02T15:35:16.952Z,18.50
2024-02-02T15:37:45.270Z,16.00
2024-02-02T15:40:15.261Z,16.25
2024-02-02T15:42:43.663Z,15.75
2024-02-02T15:47:40.418Z,15.50
2024-02-02T15:50:10.856Z,15.33
2024-02-02T15:52:39.993Z,15.25
2024-02-02T15:55:09.063Z,16.25
2024-02-02T15:57:37.316Z,16.33
2024-02-02T16:00:11.264Z,15.75
2024-02-02T16:02:40.062Z,16.33
2024-02-02T16:05:08.741Z,17.00
2024-02-02T16:07:38.469Z,17.00
2024-02-02T16:10:08.619Z,16.00
2024-02-02T16:12:39.736Z,16.25
2024-02-02T16:15:12.310Z,17.50
2024-02-02T16:17:41.276Z,15.25
2024-02-02T16:20:12.916Z,15.50
2024-02-02T16:22:42.772Z,16.33
2024-02-02T16:25:13.667Z,17.00
2024-02-02T16:27:42.111Z,16.00
2024-02-02T16:30:12.217Z,16.00
2024-02-02T16:32:40.734Z,16.00
2024-02-02T16:35:09.731Z,16.25
2024-02-02T16:37:39.889Z,14.75
2024-02-02T16:40:09.704Z,17.33
2024-02-02T16:42:40.275Z,14.25
2024-02-02T16:45:09.409Z,16.25
2024-02-02T16:47:37.534Z,15.25
2024-02-02T16:50:06.831Z,15.00
2024-02-02T16:52:35.169Z,15.75
2024-02-02T16:55:05.112Z,15.00
2024-02-02T16:57:33.245Z,16.25
2024-02-02T17:00:04.167Z,15.25
2024-02-02T17:02:32.439Z,17.50
2024-02-02T17:05:00.848Z,15.25
2024-02-02T17:07:30.054Z,15.25
2024-02-02T17:09:58.533Z,15.00
2024-02-02T17:12:27.150Z,15.00
2024-02-02T17:14:55.573Z,15.50
2024-02-02T17:17:23.928Z,15.25
2024-02-02T17:19:52.310Z,16.25
2024-02-02T17:22:20.481Z,15.00
2024-02-02T17:24:48.671Z,16.00
2024-02-02T17:27:17.113Z,16.25
2024-02-02T17:29:45.293Z,16.50
2024-02-02T17:32:17.238Z,16.67
2024-02-02T17:34:49.416Z,17.25
2024-02-02T17:37:18.125Z,17.67
2024-02-02T17:39:46.778Z,15.50
2024-02-02T17:42:15.306Z,16.00
2024-02-02T17:44:44.837Z,15.33
2024-02-02T17:47:13.364Z,16.25
2024-02-02T17:49:45.967Z,16.25
2024-02-02T17:52:17.792Z,15.67
2024-02-02T17:54:46.399Z,17.00
2024-02-02T17:57:15.690Z,16.50
2024-02-02T17:59:44.152Z,16.25
2024-02-02T18:02:12.658Z,16.50
2024-02-02T18:04:40.855Z,16.67
2024-02-02T18:07:11.571Z,16.25
2024-02-02T18:09:41.833Z,16.00
2024-02-02T18:12:13.485Z,17.00
2024-02-02T18:14:42.118Z,15.75
2024-02-02T18:17:15.431Z,16.25
2024-02-02T18:19:44.354Z,14.25
2024-02-02T18:22:12.612Z,15.00
2024-02-02T18:24:41.276Z,17.33
2024-02-02T18:27:09.807Z,16.33
2024-02-02T18:29:37.875Z,15.25
2024-02-02T18:32:07.979Z,15.00
2024-02-02T18:34:39.410Z,16.33
2024-02-02T18:37:09.084Z,16.33
2024-02-02T18:39:37.522Z,17.00
2024-02-02T18:42:08.340Z,15.33
2024-02-02T18:44:36.704Z,15.50
2024-02-02T18:47:05.456Z,15.25
2024-02-02T18:49:33.992Z,17.50
2024-02-02T18:52:02.263Z,17.50
2024-02-02T18:54:30.359Z,15.25
2024-02-02T18:57:01.830Z,15.50
2024-02-02T18:59:30.048Z,16.00
2024-02-02T19:01:58.609Z,13.25
2024-02-02T19:04:26.814Z,15.00
2024-02-02T19:06:55.424Z,15.25
2024-02-02T19:09:24.361Z,15.00
2024-02-02T19:11:52.918Z,14.25
2024-02-02T19:14:22.979Z,14.75
2024-02-02T19:16:51.440Z,16.25
2024-02-02T19:19:22.782Z,15.25
2024-02-02T19:21:52.604Z,14.33
2024-02-02T19:24:20.960Z,15.25
2024-02-02T19:26:52.393Z,15.33
2024-02-02T19:29:22.064Z,14.33
2024-02-02T19:31:50.106Z,14.75
2024-02-02T19:34:20.392Z,14.00
2024-02-02T19:36:48.806Z,15.33
2024-02-02T19:39:17.237Z,15.00
2024-02-02T19:41:45.536Z,15.25
2024-02-02T19:44:14.119Z,14.33
2024-02-02T19:46:42.666Z,15.33
2024-02-02T19:49:11.903Z,14.25
2024-02-02T19:51:40.519Z,15.25
2024-02-02T19:54:08.983Z,14.25
2024-02-02T19:56:37.494Z,13.25
2024-02-02T19:59:06.036Z,14.00
2024-02-02T20:01:35.562Z,15.75
2024-02-02T20:04:04.062Z,12.25
2024-02-02T20:06:32.667Z,15.33
2024-02-02T20:09:01.010Z,14.67
2024-02-02T20:11:30.688Z,14.25
2024-02-02T20:13:59.084Z,13.25
2024-02-02T20:16:27.470Z,14.75
2024-02-02T20:18:56.015Z,15.00
2024-02-02T20:21:27.526Z,14.25
2024-02-02T20:23:56.697Z,15.25
2024-02-02T20:26:25.055Z,15.00
2024-02-02T20:28:54.174Z,14.00
2024-02-02T20:31:22.556Z,13.33
2024-02-02T20:33:56.697Z,14.67
2024-02-02T20:36:28.681Z,14.50
2024-02-02T20:38:57.194Z,14.25
2024-02-02T20:41:28.352Z,14.75
2024-02-02T20:43:58.576Z,14.25
2024-02-02T20:46:27.524Z,15.25
2024-02-02T20:48:55.928Z,14.25
2024-02-02T20:51:24.325Z,12.00
2024-02-02T20:53:52.786Z,14.25
2024-02-02T20:56:21.342Z,14.25
2024-02-02T20:58:49.445Z,15.33
2024-02-02T21:01:17.964Z,15.25
2024-02-02T21:03:46.269Z,13.33
2024-02-02T21:06:14.678Z,14.25
2024-02-02T21:08:44.587Z,15.00
2024-02-02T21:11:12.833Z,14.50
2024-02-02T21:13:41.298Z,15.25
2024-02-02T21:16:09.713Z,14.67
2024-02-02T21:18:38.478Z,14.25
2024-02-02T21:21:07.615Z,14.33
2024-02-02T21:23:36.066Z,14.00
2024-02-02T21:26:04.853Z,14.00
2024-02-02T21:28:33.048Z,15.00
2024-02-02T21:31:01.690Z,13.33
2024-02-02T21:33:30.397Z,14.00
2024-02-02T21:36:03.628Z,14.33
2024-02-02T21:38:32.483Z,14.25
2024-02-02T21:41:03.075Z,14.33
2024-02-02T21:43:31.304Z,14.25
2024-02-02T21:45:59.724Z,14.25
2024-02-02T21:48:28.016Z,14.25
2024-02-02T21:50:56.357Z,14.33
2024-02-02T21:53:24.624Z,14.33
2024-02-02T21:55:53.578Z,14.33
2024-02-02T21:58:22.160Z,14.75
2024-02-02T22:00:50.340Z,14.25
2024-02-02T22:03:18.765Z,14.00
2024-02-02T22:05:47.250Z,13.33
2024-02-02T22:08:15.894Z,13.33
2024-02-02T22:10:43.952Z,14.25
2024-02-02T22:13:12.454Z,13.50
2024-02-02T22:15:41.008Z,14.25
2024-02-02T22:18:11.418Z,14.25
2024-02-02T22:20:40.551Z,13.25
2024-02-02T22:23:08.620Z,14.00
2024-02-02T22:25:36.909Z,14.25
2024-02-02T22:30:35.321Z,13.00
2024-02-02T22:33:03.990Z,14.00
2024-02-02T22:35:32.565Z,13.75
2024-02-02T22:38:00.849Z,13.25
2024-02-02T22:40:29.280Z,12.33
2024-02-02T22:42:57.463Z,13.25
2024-02-02T22:45:26.002Z,14.25
2024-02-02T22:47:54.503Z,15.25
2024-02-02T22:50:22.960Z,13.33
2024-02-02T22:52:51.387Z,13.25
2024-02-02T22:55:20.279Z,15.33
2024-02-02T22:57:48.640Z,14.25
2024-02-02T23:00:20.884Z,12.75
2024-02-02T23:02:49.320Z,14.00
2024-02-02T23:05:17.805Z,14.25
2024-02-02T23:07:46.049Z,13.00
2024-02-02T23:10:14.433Z,14.25
2024-02-02T23:12:42.617Z,14.00
2024-02-02T23:15:11.465Z,15.25
2024-02-02T23:17:39.843Z,12.25
2024-02-02T23:20:09.925Z,13.25
2024-02-02T23:22:38.795Z,12.25
2024-02-02T23:25:07.879Z,12.25
2024-02-02T23:27:37.929Z,13.25
2024-02-02T23:30:07.778Z,11.00
2024-02-02T23:32:36.552Z,13.50
2024-02-02T23:35:05.630Z,13.25
2024-02-02T23:37:34.788Z,11.00
2024-02-02T23:40:04.741Z,13.50
2024-02-02T23:42:33.148Z,13.00
2024-02-02T23:45:01.565Z,13.00
2024-02-02T23:47:30.033Z,14.25
2024-02-02T23:49:58.506Z,13.25
2024-02-02T23:52:26.935Z,14.25
2024-02-02T23:54:55.664Z,13.33
2024-02-02T23:57:25.887Z,13.25
2024-02-02T23:59:54.418Z,12.25
